KJES

Jesup-Wayne County Airport

Jesup, Georgia, USA
METAR KJES 200700Z AUTO 00000KT 1/2SM FG BKN006 BKN020 17/15 A3035 RMK AO2
Observed Flight Rules
Feb-20 @ 07:00 UTC (23 minutes ago) Instrument Flight Rules
Wind Visibility Clouds Conditions
Calm 1/2 miles
  • Broken at 600' AGL
  • Broken at 2,000' AGL
  • Fog
Temperatures Readings
Current 17°C / 63°F
Dewpoint 15°C / 59°F
Humidity 88%
Altimeter 30.35" Hg
Pressure 1028 hPa
Elevation 33
METAR KJES 200700Z AUTO 00000KT 1/2SM FG BKN006 BKN020 17/15 A3035 RMK AO2
Observed Flight Rules
Feb-20 @ 07:00 UTC
(23 minutes ago)
LIFR
Wind Visibility
Calm 1/2 miles
Clouds
  • Broken at 600' AGL
  • Broken at 2,000' AGL
Conditions
  • Fog
Temperature Dewpoint
17°C / 63°F 15°C / 59°F
Humidity Altimeter Pressure
88% 30.35" Hg 1028 hPa